sensor_id;sensor_type;location;lat;lon;timestamp;P1;P4;P2;P0;N10;N4;N25;N1;N05;TS
78478;SPS30;67769;51.972;5.668;2024-03-29T00:02:18;0.0;0.0;0.0;0.0;;;;1.0;38.0;
78478;SPS30;67769;51.972;5.668;2024-03-29T00:04:46;0.0;0.0;0.0;0.0;;;;1.0;37.0;
78478;SPS30;67769;51.972;5.668;2024-03-29T00:07:15;0.0;0.0;0.0;0.0;;;;2.0;37.0;
78478;SPS30;67769;51.972;5.668;2024-03-29T00:09:43;0.0;0.0;0.0;0.0;;;;2.0;39.0;
78478;SPS30;67769;51.972;5.668;2024-03-29T00:12:12;0.0;0.0;0.0;0.0;;;;2.0;42.0;
78478;SPS30;67769;51.972;5.668;2024-03-29T00:14:40;0.0;0.0;0.0;0.0;;;;2.0;52.0;
78478;SPS30;67769;51.972;5.668;2024-03-29T00:17:10;0.0;0.0;0.0;0.0;;;;2.0;52.0;
78478;SPS30;67769;51.972;5.668;2024-03-29T00:19:38;0.0;0.0;0.0;0.0;;;;2.0;58.0;
78478;SPS30;67769;51.972;5.668;2024-03-29T00:22:07;0.0;0.0;0.0;0.0;;;;2.0;59.0;
78478;SPS30;67769;51.972;5.668;2024-03-29T00:24:35;0.0;0.0;0.0;0.0;;;;2.0;56.0;
78478;SPS30;67769;51.972;5.668;2024-03-29T00:27:04;0.0;0.0;0.0;0.0;;;;2.0;53.0;
78478;SPS30;67769;51.972;5.668;2024-03-29T00:29:34;0.0;0.0;0.0;0.0;;;;2.0;56.0;
78478;SPS30;67769;51.972;5.668;2024-03-29T00:32:05;0.0;0.0;0.0;0.0;;;;2.0;58.0;
78478;SPS30;67769;51.972;5.668;2024-03-29T00:34:34;0.0;0.0;0.0;0.0;;;;2.0;61.0;
78478;SPS30;67769;51.972;5.668;2024-03-29T00:37:02;0.0;0.0;0.0;0.0;;;;2.0;60.0;
78478;SPS30;67769;51.972;5.668;2024-03-29T00:39:31;0.0;0.0;0.0;0.0;;;;2.0;55.0;
78478;SPS30;67769;51.972;5.668;2024-03-29T00:41:59;0.0;0.0;0.0;0.0;;;;2.0;49.0;
78478;SPS30;67769;51.972;5.668;2024-03-29T00:44:28;0.0;0.0;0.0;0.0;;;;2.0;39.0;
78478;SPS30;67769;51.972;5.668;2024-03-29T00:46:56;0.0;0.0;0.0;0.0;;;;2.0;38.0;
78478;SPS30;67769;51.972;5.668;2024-03-29T00:49:25;0.0;0.0;0.0;0.0;;;;2.0;38.0;
78478;SPS30;67769;51.972;5.668;2024-03-29T00:51:54;0.0;0.0;0.0;0.0;;;;2.0;39.0;
78478;SPS30;67769;51.972;5.668;2024-03-29T00:54:22;0.0;0.0;0.0;0.0;;;;2.0;40.0;
78478;SPS30;67769;51.972;5.668;2024-03-29T00:56:51;0.0;0.0;0.0;0.0;;;;2.0;44.0;
78478;SPS30;67769;51.972;5.668;2024-03-29T00:59:20;0.0;0.0;0.0;0.0;;;;2.0;54.0;
78478;SPS30;67769;51.972;5.668;2024-03-29T01:01:49;0.0;0.0;0.0;0.0;;;;2.0;61.0;
78478;SPS30;67769;51.972;5.668;2024-03-29T01:04:18;0.0;0.0;0.0;0.0;;;;2.0;74.0;
78478;SPS30;67769;51.972;5.668;2024-03-29T01:06:47;0.0;0.0;0.0;0.0;;;;2.0;72.0;
78478;SPS30;67769;51.972;5.668;2024-03-29T01:09:15;0.0;0.0;0.0;0.0;;;;2.0;70.0;
78478;SPS30;67769;51.972;5.668;2024-03-29T01:11:44;0.0;0.0;0.0;0.0;;;;2.0;68.0;
78478;SPS30;67769;51.972;5.668;2024-03-29T01:14:12;0.0;0.0;0.0;0.0;;;;2.0;64.0;
78478;SPS30;67769;51.972;5.668;2024-03-29T01:16:41;0.0;0.0;0.0;0.0;;;;2.0;62.0;
78478;SPS30;67769;51.972;5.668;2024-03-29T01:19:09;0.0;0.0;0.0;0.0;;;;2.0;59.0;
78478;SPS30;67769;51.972;5.668;2024-03-29T01:21:38;0.0;0.0;0.0;0.0;;;;2.0;55.0;
78478;SPS30;67769;51.972;5.668;2024-03-29T01:24:06;0.0;0.0;0.0;0.0;;;;2.0;46.0;
78478;SPS30;67769;51.972;5.668;2024-03-29T01:26:35;0.0;0.0;0.0;0.0;;;;2.0;41.0;
78478;SPS30;67769;51.972;5.668;2024-03-29T01:29:03;0.0;0.0;0.0;0.0;;;;2.0;38.0;
78478;SPS30;67769;51.972;5.668;2024-03-29T01:31:32;0.0;0.0;0.0;0.0;;;;2.0;38.0;
78478;SPS30;67769;51.972;5.668;2024-03-29T01:34:01;0.0;0.0;0.0;0.0;;;;2.0;39.0;
78478;SPS30;67769;51.972;5.668;2024-03-29T01:36:30;0.0;0.0;0.0;0.0;;;;2.0;39.0;
78478;SPS30;67769;51.972;5.668;2024-03-29T01:38:59;0.0;0.0;0.0;0.0;;;;2.0;39.0;
78478;SPS30;67769;51.972;5.668;2024-03-29T01:41:28;0.0;0.0;0.0;0.0;;;;2.0;39.0;
78478;SPS30;67769;51.972;5.668;2024-03-29T01:43:56;0.0;0.0;0.0;0.0;;;;2.0;39.0;
78478;SPS30;67769;51.972;5.668;2024-03-29T01:46:25;0.0;0.0;0.0;0.0;;;;2.0;39.0;
78478;SPS30;67769;51.972;5.668;2024-03-29T01:48:54;0.0;0.0;0.0;0.0;;;;2.0;38.0;
78478;SPS30;67769;51.972;5.668;2024-03-29T01:51:25;0.0;0.0;0.0;0.0;;;;2.0;37.0;
78478;SPS30;67769;51.972;5.668;2024-03-29T01:53:54;0.0;0.0;0.0;0.0;;;;2.0;36.0;
78478;SPS30;67769;51.972;5.668;2024-03-29T01:56:23;0.0;0.0;0.0;0.0;;;;2.0;36.0;
78478;SPS30;67769;51.972;5.668;2024-03-29T01:58:53;0.0;0.0;0.0;0.0;;;;2.0;36.0;
78478;SPS30;67769;51.972;5.668;2024-03-29T02:01:25;0.0;0.0;0.0;0.0;;;;2.0;36.0;
78478;SPS30;67769;51.972;5.668;2024-03-29T02:03:55;0.0;0.0;0.0;0.0;;;;2.0;38.0;
78478;SPS30;67769;51.972;5.668;2024-03-29T02:06:25;0.0;0.0;0.0;0.0;;;;2.0;39.0;
78478;SPS30;67769;51.972;5.668;2024-03-29T02:08:54;0.0;0.0;0.0;0.0;;;;2.0;40.0;
78478;SPS30;67769;51.972;5.668;2024-03-29T02:11:22;0.0;0.0;0.0;0.0;;;;2.0;41.0;
78478;SPS30;67769;51.972;5.668;2024-03-29T02:13:51;0.0;0.0;0.0;0.0;;;;2.0;43.0;
78478;SPS30;67769;51.972;5.668;2024-03-29T02:16:20;0.0;0.0;0.0;0.0;;;;2.0;44.0;
78478;SPS30;67769;51.972;5.668;2024-03-29T02:18:49;0.0;0.0;0.0;0.0;;;;2.0;45.0;
78478;SPS30;67769;51.972;5.668;2024-03-29T02:21:18;0.0;0.0;0.0;0.0;;;;2.0;47.0;
78478;SPS30;67769;51.972;5.668;2024-03-29T02:23:47;0.0;0.0;0.0;0.0;;;;2.0;51.0;
78478;SPS30;67769;51.972;5.668;2024-03-29T02:26:23;0.0;0.0;0.0;0.0;;;;2.0;57.0;
78478;SPS30;67769;51.972;5.668;2024-03-29T02:28:57;0.0;0.0;0.0;0.0;;;;2.0;60.0;
78478;SPS30;67769;51.972;5.668;2024-03-29T02:31:26;0.0;0.0;0.0;0.0;;;;2.0;59.0;
78478;SPS30;67769;51.972;5.668;2024-03-29T02:33:55;0.0;0.0;0.0;0.0;;;;2.0;58.0;
78478;SPS30;67769;51.972;5.668;2024-03-29T02:36:24;0.0;0.0;0.0;0.0;;;;2.0;60.0;
78478;SPS30;67769;51.972;5.668;2024-03-29T02:38:52;0.0;0.0;0.0;0.0;;;;2.0;60.0;
78478;SPS30;67769;51.972;5.668;2024-03-29T02:41:21;0.0;0.0;0.0;0.0;;;;2.0;60.0;
78478;SPS30;67769;51.972;5.668;2024-03-29T02:43:52;0.0;0.0;0.0;0.0;;;;2.0;59.0;
78478;SPS30;67769;51.972;5.668;2024-03-29T02:46:22;0.0;0.0;0.0;0.0;;;;2.0;58.0;
78478;SPS30;67769;51.972;5.668;2024-03-29T02:48:51;0.0;0.0;0.0;0.0;;;;2.0;55.0;
78478;SPS30;67769;51.972;5.668;2024-03-29T02:51:20;0.0;0.0;0.0;0.0;;;;2.0;55.0;
78478;SPS30;67769;51.972;5.668;2024-03-29T02:53:49;0.0;0.0;0.0;0.0;;;;2.0;55.0;
78478;SPS30;67769;51.972;5.668;2024-03-29T02:56:17;0.0;0.0;0.0;0.0;;;;2.0;53.0;
78478;SPS30;67769;51.972;5.668;2024-03-29T02:58:49;0.0;0.0;0.0;0.0;;;;2.0;49.0;
78478;SPS30;67769;51.972;5.668;2024-03-29T03:01:18;0.0;0.0;0.0;0.0;;;;2.0;49.0;
78478;SPS30;67769;51.972;5.668;2024-03-29T03:03:48;0.0;0.0;0.0;0.0;;;;2.0;53.0;
78478;SPS30;67769;51.972;5.668;2024-03-29T03:06:17;0.0;0.0;0.0;0.0;;;;2.0;57.0;
78478;SPS30;67769;51.972;5.668;2024-03-29T03:08:46;0.0;0.0;0.0;0.0;;;;2.0;59.0;
78478;SPS30;67769;51.972;5.668;2024-03-29T03:11:30;0.0;0.0;0.0;0.0;;;;2.0;60.0;
78478;SPS30;67769;51.972;5.668;2024-03-29T03:13:59;0.0;0.0;0.0;0.0;;;;2.0;68.0;
78478;SPS30;67769;51.972;5.668;2024-03-29T03:16:27;0.0;0.0;0.0;0.0;;;;2.0;67.0;
78478;SPS30;67769;51.972;5.668;2024-03-29T03:18:56;0.0;0.0;0.0;0.0;;;;2.0;67.0;
78478;SPS30;67769;51.972;5.668;2024-03-29T03:21:26;0.0;0.0;0.0;0.0;;;;2.0;67.0;
78478;SPS30;67769;51.972;5.668;2024-03-29T03:23:55;0.0;0.0;0.0;0.0;;;;2.0;64.0;
78478;SPS30;67769;51.972;5.668;2024-03-29T03:26:24;0.0;0.0;0.0;0.0;;;;2.0;63.0;
78478;SPS30;67769;51.972;5.668;2024-03-29T03:28:52;0.0;0.0;0.0;0.0;;;;2.0;64.0;
78478;SPS30;67769;51.972;5.668;2024-03-29T03:31:21;0.0;0.0;0.0;0.0;;;;2.0;60.0;
78478;SPS30;67769;51.972;5.668;2024-03-29T03:33:49;0.0;0.0;0.0;0.0;;;;2.0;59.0;
78478;SPS30;67769;51.972;5.668;2024-03-29T03:36:19;0.0;0.0;0.0;0.0;;;;2.0;56.0;
78478;SPS30;67769;51.972;5.668;2024-03-29T03:38:47;0.0;0.0;0.0;0.0;;;;2.0;56.0;
78478;SPS30;67769;51.972;5.668;2024-03-29T03:41:16;0.0;0.0;0.0;0.0;;;;2.0;59.0;
78478;SPS30;67769;51.972;5.668;2024-03-29T03:43:44;0.0;0.0;0.0;0.0;;;;2.0;60.0;
78478;SPS30;67769;51.972;5.668;2024-03-29T03:46:13;0.0;0.0;0.0;0.0;;;;2.0;61.0;
78478;SPS30;67769;51.972;5.668;2024-03-29T03:48:41;0.0;0.0;0.0;0.0;;;;2.0;62.0;
78478;SPS30;67769;51.972;5.668;2024-03-29T03:51:09;0.0;0.0;0.0;0.0;;;;2.0;62.0;
78478;SPS30;67769;51.972;5.668;2024-03-29T03:53:38;0.0;0.0;0.0;0.0;;;;2.0;65.0;
78478;SPS30;67769;51.972;5.668;2024-03-29T03:56:07;0.0;0.0;0.0;0.0;;;;2.0;62.0;
78478;SPS30;67769;51.972;5.668;2024-03-29T03:58:35;0.0;0.0;0.0;0.0;;;;2.0;62.0;
78478;SPS30;67769;51.972;5.668;2024-03-29T04:01:07;0.0;0.0;0.0;0.0;;;;2.0;61.0;
78478;SPS30;67769;51.972;5.668;2024-03-29T04:03:35;0.0;0.0;0.0;0.0;;;;2.0;52.0;
78478;SPS30;67769;51.972;5.668;2024-03-29T04:06:06;0.0;0.0;0.0;0.0;;;;2.0;53.0;
78478;SPS30;67769;51.972;5.668;2024-03-29T04:08:35;0.0;0.0;0.0;0.0;;;;2.0;58.0;
78478;SPS30;67769;51.972;5.668;2024-03-29T04:11:04;0.0;0.0;0.0;0.0;;;;2.0;54.0;
78478;SPS30;67769;51.972;5.668;2024-03-29T04:13:32;0.0;0.0;0.0;0.0;;;;2.0;50.0;
78478;SPS30;67769;51.972;5.668;2024-03-29T04:16:03;0.0;0.0;0.0;0.0;;;;2.0;48.0;
78478;SPS30;67769;51.972;5.668;2024-03-29T04:18:32;0.0;0.0;0.0;0.0;;;;2.0;42.0;
78478;SPS30;67769;51.972;5.668;2024-03-29T04:21:01;0.0;0.0;0.0;0.0;;;;2.0;32.0;
78478;SPS30;67769;51.972;5.668;2024-03-29T04:23:31;0.0;0.0;0.0;0.0;;;;2.0;24.0;
78478;SPS30;67769;51.972;5.668;2024-03-29T04:26:00;0.0;0.0;0.0;0.0;;;;2.0;18.0;
78478;SPS30;67769;51.972;5.668;2024-03-29T04:28:29;0.0;0.0;0.0;0.0;;;;2.0;10.0;
78478;SPS30;67769;51.972;5.668;2024-03-29T04:30:58;0.0;0.0;0.0;0.0;;;;2.0;8.0;
78478;SPS30;67769;51.972;5.668;2024-03-29T04:33:28;0.0;0.0;0.0;0.0;;;;2.0;8.0;
78478;SPS30;67769;51.972;5.668;2024-03-29T04:35:57;0.0;0.0;0.0;0.0;;;;2.0;8.0;
78478;SPS30;67769;51.972;5.668;2024-03-29T04:38:27;0.0;0.0;0.0;0.0;;;;3.0;10.0;
78478;SPS30;67769;51.972;5.668;2024-03-29T04:40:57;0.0;0.0;0.0;0.0;;;;3.0;11.0;
78478;SPS30;67769;51.972;5.668;2024-03-29T04:43:27;0.0;0.0;0.0;0.0;;;;3.0;12.0;
78478;SPS30;67769;51.972;5.668;2024-03-29T04:46:03;0.0;0.0;0.0;0.0;;;;3.0;15.0;
78478;SPS30;67769;51.972;5.668;2024-03-29T04:48:35;0.0;0.0;0.0;0.0;;;;3.0;19.0;
78478;SPS30;67769;51.972;5.668;2024-03-29T04:51:04;0.0;0.0;0.0;0.0;;;;3.0;27.0;
78478;SPS30;67769;51.972;5.668;2024-03-29T04:53:34;0.0;0.0;0.0;0.0;;;;3.0;32.0;
78478;SPS30;67769;51.972;5.668;2024-03-29T04:56:06;0.0;0.0;0.0;0.0;;;;3.0;38.0;
78478;SPS30;67769;51.972;5.668;2024-03-29T04:58:35;0.0;0.0;0.0;0.0;;;;3.0;38.0;
78478;SPS30;67769;51.972;5.668;2024-03-29T05:01:06;0.0;0.0;0.0;0.0;;;;3.0;37.0;
78478;SPS30;67769;51.972;5.668;2024-03-29T05:03:35;0.0;0.0;0.0;0.0;;;;2.0;52.0;
78478;SPS30;67769;51.972;5.668;2024-03-29T05:06:05;0.0;0.0;0.0;0.0;;;;2.0;52.0;
78478;SPS30;67769;51.972;5.668;2024-03-29T05:08:34;0.0;0.0;0.0;0.0;;;;2.0;62.0;
78478;SPS30;67769;51.972;5.668;2024-03-29T05:11:03;0.0;0.0;0.0;0.0;;;;2.0;65.0;
78478;SPS30;67769;51.972;5.668;2024-03-29T05:13:33;0.0;0.0;0.0;0.0;;;;2.0;70.0;
78478;SPS30;67769;51.972;5.668;2024-03-29T05:16:05;0.0;0.0;0.0;0.0;;;;2.0;66.0;
78478;SPS30;67769;51.972;5.668;2024-03-29T05:18:33;0.0;0.0;0.0;0.0;;;;2.0;67.0;
78478;SPS30;67769;51.972;5.668;2024-03-29T05:21:04;0.0;0.0;0.0;0.0;;;;2.0;73.0;
78478;SPS30;67769;51.972;5.668;2024-03-29T05:23:33;0.0;0.0;0.0;0.0;;;;2.0;80.0;
78478;SPS30;67769;51.972;5.668;2024-03-29T05:26:01;0.0;0.0;0.0;0.0;;;;2.0;96.0;
78478;SPS30;67769;51.972;5.668;2024-03-29T05:28:30;0.0;0.0;0.0;0.0;;;;2.0;107.0;
78478;SPS30;67769;51.972;5.668;2024-03-29T05:31:08;0.0;0.0;0.0;0.0;;;;2.0;116.0;
78478;SPS30;67769;51.972;5.668;2024-03-29T05:33:40;0.0;0.0;0.0;0.0;;;;2.0;116.0;
78478;SPS30;67769;51.972;5.668;2024-03-29T05:36:09;0.0;0.0;0.0;0.0;;;;2.0;113.0;
78478;SPS30;67769;51.972;5.668;2024-03-29T05:38:39;0.0;0.0;0.0;0.0;;;;2.0;117.0;
78478;SPS30;67769;51.972;5.668;2024-03-29T05:41:09;0.0;0.0;0.0;0.0;;;;2.0;114.0;
78478;SPS30;67769;51.972;5.668;2024-03-29T05:43:38;0.0;0.0;0.0;0.0;;;;2.0;116.0;
78478;SPS30;67769;51.972;5.668;2024-03-29T05:46:07;0.0;0.0;0.0;0.0;;;;2.0;119.0;
78478;SPS30;67769;51.972;5.668;2024-03-29T05:48:35;0.0;0.0;0.0;0.0;;;;2.0;125.0;
78478;SPS30;67769;51.972;5.668;2024-03-29T05:51:06;0.0;0.0;0.0;0.0;;;;2.0;128.0;
78478;SPS30;67769;51.972;5.668;2024-03-29T05:53:35;0.0;0.0;0.0;0.0;;;;2.0;113.0;
78478;SPS30;67769;51.972;5.668;2024-03-29T05:56:04;0.0;0.0;0.0;0.0;;;;2.0;133.0;
78478;SPS30;67769;51.972;5.668;2024-03-29T05:58:34;0.0;0.0;0.0;0.0;;;;2.0;123.0;
78478;SPS30;67769;51.972;5.668;2024-03-29T06:01:02;0.0;0.0;0.0;0.0;;;;2.0;98.0;
78478;SPS30;67769;51.972;5.668;2024-03-29T06:03:31;0.0;0.0;0.0;0.0;;;;2.0;93.0;
78478;SPS30;67769;51.972;5.668;2024-03-29T06:06:00;0.0;0.0;0.0;0.0;;;;2.0;95.0;
78478;SPS30;67769;51.972;5.668;2024-03-29T06:08:28;0.0;0.0;0.0;0.0;;;;2.0;100.0;
78478;SPS30;67769;51.972;5.668;2024-03-29T06:10:57;0.0;0.0;0.0;0.0;;;;2.0;121.0;
78478;SPS30;67769;51.972;5.668;2024-03-29T06:13:28;0.0;0.0;0.0;0.0;;;;2.0;94.0;
78478;SPS30;67769;51.972;5.668;2024-03-29T06:17:56;0.0;0.0;0.0;0.0;;;;2.0;85.0;
78478;SPS30;67769;51.972;5.668;2024-03-29T06:20:25;0.0;0.0;0.0;0.0;;;;2.0;89.0;
78478;SPS30;67769;51.972;5.668;2024-03-29T06:22:54;0.0;0.0;0.0;0.0;;;;2.0;91.0;
78478;SPS30;67769;51.972;5.668;2024-03-29T06:25:22;0.0;0.0;0.0;0.0;;;;2.0;99.0;
78478;SPS30;67769;51.972;5.668;2024-03-29T06:27:53;0.0;0.0;0.0;0.0;;;;2.0;101.0;
78478;SPS30;67769;51.972;5.668;2024-03-29T06:30:21;0.0;0.0;0.0;0.0;;;;2.0;100.0;
78478;SPS30;67769;51.972;5.668;2024-03-29T06:32:52;0.0;0.0;0.0;0.0;;;;2.0;100.0;
78478;SPS30;67769;51.972;5.668;2024-03-29T06:35:20;0.0;0.0;0.0;0.0;;;;2.0;105.0;
78478;SPS30;67769;51.972;5.668;2024-03-29T06:37:48;0.0;0.0;0.0;0.0;;;;2.0;103.0;
78478;SPS30;67769;51.972;5.668;2024-03-29T06:40:17;0.0;0.0;0.0;0.0;;;;2.0;105.0;
78478;SPS30;67769;51.972;5.668;2024-03-29T06:42:47;0.0;0.0;0.0;0.0;;;;2.0;153.0;
78478;SPS30;67769;51.972;5.668;2024-03-29T06:45:16;0.0;0.0;0.0;0.0;;;;2.0;142.0;
78478;SPS30;67769;51.972;5.668;2024-03-29T06:47:45;0.0;0.0;0.0;0.0;;;;2.0;135.0;
78478;SPS30;67769;51.972;5.668;2024-03-29T06:50:15;0.0;0.0;0.0;0.0;;;;2.0;134.0;
78478;SPS30;67769;51.972;5.668;2024-03-29T06:52:44;0.0;0.0;0.0;0.0;;;;2.0;136.0;
78478;SPS30;67769;51.972;5.668;2024-03-29T06:55:12;0.0;0.0;0.0;0.0;;;;2.0;121.0;
78478;SPS30;67769;51.972;5.668;2024-03-29T06:57:41;0.0;0.0;0.0;0.0;;;;2.0;118.0;
78478;SPS30;67769;51.972;5.668;2024-03-29T07:00:11;0.0;0.0;0.0;0.0;;;;2.0;136.0;
78478;SPS30;67769;51.972;5.668;2024-03-29T07:02:40;0.0;0.0;0.0;0.0;;;;2.0;134.0;
78478;SPS30;67769;51.972;5.668;2024-03-29T07:05:09;0.0;0.0;0.0;0.0;;;;2.0;129.0;
78478;SPS30;67769;51.972;5.668;2024-03-29T07:07:39;0.0;0.0;0.0;0.0;;;;2.0;110.0;
78478;SPS30;67769;51.972;5.668;2024-03-29T07:10:08;0.0;0.0;0.0;0.0;;;;2.0;119.0;
78478;SPS30;67769;51.972;5.668;2024-03-29T07:12:37;0.0;0.0;0.0;0.0;;;;2.0;127.0;
78478;SPS30;67769;51.972;5.668;2024-03-29T07:15:06;0.0;0.0;0.0;0.0;;;;2.0;146.0;
78478;SPS30;67769;51.972;5.668;2024-03-29T07:17:35;0.0;0.0;0.0;0.0;;;;2.0;145.0;
78478;SPS30;67769;51.972;5.668;2024-03-29T07:20:04;0.0;0.0;0.0;0.0;;;;2.0;156.0;
78478;SPS30;67769;51.972;5.668;2024-03-29T07:22:34;0.0;0.0;0.0;0.0;;;;2.0;152.0;
78478;SPS30;67769;51.972;5.668;2024-03-29T07:25:03;0.0;0.0;0.0;0.0;;;;2.0;159.0;
78478;SPS30;67769;51.972;5.668;2024-03-29T07:27:33;0.0;0.0;0.0;0.0;;;;2.0;177.0;
78478;SPS30;67769;51.972;5.668;2024-03-29T07:30:01;0.0;0.0;0.0;0.0;;;;2.0;184.0;
78478;SPS30;67769;51.972;5.668;2024-03-29T07:32:31;0.0;0.0;0.0;0.0;;;;2.0;181.0;
78478;SPS30;67769;51.972;5.668;2024-03-29T07:34:59;0.0;0.0;0.0;0.0;;;;2.0;179.0;
78478;SPS30;67769;51.972;5.668;2024-03-29T07:37:29;0.0;0.0;0.0;0.0;;;;2.0;150.0;
78478;SPS30;67769;51.972;5.668;2024-03-29T07:39:57;0.0;0.0;0.0;0.0;;;;2.0;138.0;
78478;SPS30;67769;51.972;5.668;2024-03-29T07:42:26;0.0;0.0;0.0;0.0;;;;2.0;147.0;
78478;SPS30;67769;51.972;5.668;2024-03-29T07:44:54;0.0;0.0;0.0;0.0;;;;2.0;162.0;
78478;SPS30;67769;51.972;5.668;2024-03-29T07:47:23;0.0;0.0;0.0;0.0;;;;2.0;180.0;
78478;SPS30;67769;51.972;5.668;2024-03-29T07:49:52;0.0;0.0;0.0;0.0;;;;2.0;184.0;
78478;SPS30;67769;51.972;5.668;2024-03-29T07:52:20;0.0;0.0;0.0;0.0;;;;2.0;173.0;
78478;SPS30;67769;51.972;5.668;2024-03-29T07:54:49;0.0;0.0;0.0;0.0;;;;2.0;155.0;
78478;SPS30;67769;51.972;5.668;2024-03-29T07:57:17;0.0;0.0;0.0;0.0;;;;2.0;152.0;
78478;SPS30;67769;51.972;5.668;2024-03-29T07:59:46;0.0;0.0;0.0;0.0;;;;2.0;164.0;
78478;SPS30;67769;51.972;5.668;2024-03-29T08:02:14;0.0;0.0;0.0;0.0;;;;2.0;166.0;
78478;SPS30;67769;51.972;5.668;2024-03-29T08:04:43;0.0;0.0;0.0;0.0;;;;2.0;164.0;
78478;SPS30;67769;51.972;5.668;2024-03-29T08:07:13;0.0;0.0;0.0;0.0;;;;2.0;156.0;
78478;SPS30;67769;51.972;5.668;2024-03-29T08:09:42;0.0;0.0;0.0;0.0;;;;2.0;158.0;
78478;SPS30;67769;51.972;5.668;2024-03-29T08:12:10;0.0;0.0;0.0;0.0;;;;2.0;286.0;
78478;SPS30;67769;51.972;5.668;2024-03-29T08:14:39;0.0;0.0;0.0;0.0;;;;2.0;207.0;
78478;SPS30;67769;51.972;5.668;2024-03-29T08:17:07;0.0;0.0;0.0;0.0;;;;2.0;206.0;
78478;SPS30;67769;51.972;5.668;2024-03-29T08:19:36;0.0;0.0;0.0;0.0;;;;2.0;170.0;
78478;SPS30;67769;51.972;5.668;2024-03-29T08:22:09;0.0;0.0;0.0;0.0;;;;2.0;195.0;
78478;SPS30;67769;51.972;5.668;2024-03-29T08:24:38;0.0;0.0;0.0;0.0;;;;2.0;195.0;
78478;SPS30;67769;51.972;5.668;2024-03-29T08:27:07;0.0;0.0;0.0;0.0;;;;2.0;187.0;
78478;SPS30;67769;51.972;5.668;2024-03-29T08:29:36;0.0;0.0;0.0;0.0;;;;2.0;180.0;
78478;SPS30;67769;51.972;5.668;2024-03-29T08:32:04;0.0;0.0;0.0;0.0;;;;2.0;176.0;
78478;SPS30;67769;51.972;5.668;2024-03-29T08:34:35;0.0;0.0;0.0;0.0;;;;2.0;178.0;
78478;SPS30;67769;51.972;5.668;2024-03-29T08:37:04;0.0;0.0;0.0;0.0;;;;2.0;179.0;
78478;SPS30;67769;51.972;5.668;2024-03-29T08:39:33;0.0;0.0;0.0;0.0;;;;2.0;180.0;
78478;SPS30;67769;51.972;5.668;2024-03-29T08:42:04;0.0;0.0;0.0;0.0;;;;2.0;224.0;
78478;SPS30;67769;51.972;5.668;2024-03-29T08:44:33;0.0;0.0;0.0;0.0;;;;2.0;214.0;
78478;SPS30;67769;51.972;5.668;2024-03-29T08:47:03;0.0;0.0;0.0;0.0;;;;2.0;221.0;
78478;SPS30;67769;51.972;5.668;2024-03-29T08:49:32;0.0;0.0;0.0;0.0;;;;2.0;222.0;
78478;SPS30;67769;51.972;5.668;2024-03-29T08:52:00;0.0;0.0;0.0;0.0;;;;2.0;222.0;
78478;SPS30;67769;51.972;5.668;2024-03-29T08:54:31;0.0;0.0;0.0;0.0;;;;2.0;221.0;
78478;SPS30;67769;51.972;5.668;2024-03-29T08:57:00;0.0;0.0;0.0;0.0;;;;2.0;205.0;
78478;SPS30;67769;51.972;5.668;2024-03-29T08:59:29;0.0;0.0;0.0;0.0;;;;2.0;209.0;
78478;SPS30;67769;51.972;5.668;2024-03-29T09:02:03;0.0;0.0;0.0;0.0;;;;2.0;233.0;
78478;SPS30;67769;51.972;5.668;2024-03-29T09:04:34;0.0;0.0;0.0;0.0;;;;2.0;357.0;
78478;SPS30;67769;51.972;5.668;2024-03-29T09:07:03;0.0;0.0;0.0;0.0;;;;1.0;395.0;
78478;SPS30;67769;51.972;5.668;2024-03-29T09:09:32;0.0;0.0;0.0;0.0;;;;1.0;352.0;
78478;SPS30;67769;51.972;5.668;2024-03-29T09:12:01;0.0;0.0;0.0;0.0;;;;1.0;348.0;
78478;SPS30;67769;51.972;5.668;2024-03-29T09:14:29;0.0;0.0;0.0;0.0;;;;1.0;342.0;
78478;SPS30;67769;51.972;5.668;2024-03-29T09:16:58;0.0;0.0;0.0;0.0;;;;1.0;332.0;
78478;SPS30;67769;51.972;5.668;2024-03-29T09:19:28;0.0;0.0;0.0;0.0;;;;1.0;313.0;
78478;SPS30;67769;51.972;5.668;2024-03-29T09:21:57;0.0;0.0;0.0;0.0;;;;1.0;326.0;
78478;SPS30;67769;51.972;5.668;2024-03-29T09:24:26;0.0;0.0;0.0;0.0;;;;1.0;323.0;
78478;SPS30;67769;51.972;5.668;2024-03-29T09:26:55;0.0;0.0;0.0;0.0;;;;1.0;324.0;
78478;SPS30;67769;51.972;5.668;2024-03-29T09:29:23;0.0;0.0;0.0;0.0;;;;1.0;317.0;
78478;SPS30;67769;51.972;5.668;2024-03-29T09:31:52;0.0;0.0;0.0;0.0;;;;1.0;318.0;
78478;SPS30;67769;51.972;5.668;2024-03-29T09:34:22;0.0;0.0;0.0;0.0;;;;1.0;336.0;
78478;SPS30;67769;51.972;5.668;2024-03-29T09:36:51;0.0;0.0;0.0;0.0;;;;1.0;336.0;
78478;SPS30;67769;51.972;5.668;2024-03-29T09:39:19;0.0;0.0;0.0;0.0;;;;1.0;336.0;
78478;SPS30;67769;51.972;5.668;2024-03-29T09:41:48;0.0;0.0;0.0;0.0;;;;1.0;325.0;
78478;SPS30;67769;51.972;5.668;2024-03-29T09:44:18;0.0;0.0;0.0;0.0;;;;1.0;305.0;
78478;SPS30;67769;51.972;5.668;2024-03-29T09:46:47;0.0;0.0;0.0;0.0;;;;1.0;306.0;
78478;SPS30;67769;51.972;5.668;2024-03-29T09:49:18;0.0;0.0;0.0;0.0;;;;1.0;305.0;
78478;SPS30;67769;51.972;5.668;2024-03-29T09:51:47;0.0;0.0;0.0;0.0;;;;1.0;293.0;
78478;SPS30;67769;51.972;5.668;2024-03-29T09:54:17;0.0;0.0;0.0;0.0;;;;1.0;299.0;
78478;SPS30;67769;51.972;5.668;2024-03-29T09:56:46;0.0;0.0;0.0;0.0;;;;1.0;299.0;
78478;SPS30;67769;51.972;5.668;2024-03-29T09:59:16;0.0;0.0;0.0;0.0;;;;1.0;301.0;
78478;SPS30;67769;51.972;5.668;2024-03-29T10:01:44;0.0;0.0;0.0;0.0;;;;1.0;304.0;
78478;SPS30;67769;51.972;5.668;2024-03-29T10:04:16;0.0;0.0;0.0;0.0;;;;1.0;310.0;
78478;SPS30;67769;51.972;5.668;2024-03-29T10:06:48;0.0;0.0;0.0;0.0;;;;1.0;308.0;
78478;SPS30;67769;51.972;5.668;2024-03-29T10:09:17;0.0;0.0;0.0;0.0;;;;1.0;298.0;
78478;SPS30;67769;51.972;5.668;2024-03-29T10:11:47;0.0;0.0;0.0;0.0;;;;1.0;289.0;
78478;SPS30;67769;51.972;5.668;2024-03-29T10:14:16;0.0;0.0;0.0;0.0;;;;1.0;290.0;
78478;SPS30;67769;51.972;5.668;2024-03-29T10:16:48;0.0;0.0;0.0;0.0;;;;1.0;287.0;
78478;SPS30;67769;51.972;5.668;2024-03-29T10:19:19;0.0;0.0;0.0;0.0;;;;1.0;281.0;
78478;SPS30;67769;51.972;5.668;2024-03-29T10:21:48;0.0;0.0;0.0;0.0;;;;1.0;275.0;
78478;SPS30;67769;51.972;5.668;2024-03-29T10:24:18;0.0;0.0;0.0;0.0;;;;1.0;284.0;
78478;SPS30;67769;51.972;5.668;2024-03-29T10:26:47;0.0;0.0;0.0;0.0;;;;1.0;288.0;
78478;SPS30;67769;51.972;5.668;2024-03-29T10:29:16;0.0;0.0;0.0;0.0;;;;1.0;288.0;
78478;SPS30;67769;51.972;5.668;2024-03-29T10:31:46;0.0;0.0;0.0;0.0;;;;1.0;270.0;
78478;SPS30;67769;51.972;5.668;2024-03-29T10:34:18;0.0;0.0;0.0;0.0;;;;1.0;254.0;
78478;SPS30;67769;51.972;5.668;2024-03-29T10:36:46;0.0;0.0;0.0;0.0;;;;1.0;255.0;
78478;SPS30;67769;51.972;5.668;2024-03-29T10:39:17;0.0;0.0;0.0;0.0;;;;1.0;255.0;
78478;SPS30;67769;51.972;5.668;2024-03-29T10:41:48;0.0;0.0;0.0;0.0;;;;1.0;259.0;
78478;SPS30;67769;51.972;5.668;2024-03-29T10:44:20;0.4;0.4;0.4;0.4;;;;1.0;291.0;
78478;SPS30;67769;51.972;5.668;2024-03-29T10:46:49;0.0;0.0;0.0;0.0;;;;1.0;282.0;
78478;SPS30;67769;51.972;5.668;2024-03-29T10:49:18;0.0;0.0;0.0;0.0;;;;1.0;285.0;
78478;SPS30;67769;51.972;5.668;2024-03-29T10:51:51;0.0;0.0;0.0;0.0;;;;1.0;306.0;
78478;SPS30;67769;51.972;5.668;2024-03-29T10:54:23;0.0;0.0;0.0;0.0;;;;1.0;308.0;
78478;SPS30;67769;51.972;5.668;2024-03-29T10:56:55;0.0;0.0;0.0;0.0;;;;1.0;306.0;
78478;SPS30;67769;51.972;5.668;2024-03-29T10:59:38;0.0;0.0;0.0;0.0;;;;1.0;299.0;
78478;SPS30;67769;51.972;5.668;2024-03-29T11:02:15;0.0;0.0;0.0;0.0;;;;1.0;287.0;
78478;SPS30;67769;51.972;5.668;2024-03-29T11:04:55;0.0;0.0;0.0;0.0;;;;1.0;269.0;
78478;SPS30;67769;51.972;5.668;2024-03-29T11:07:28;0.0;0.0;0.0;0.0;;;;1.0;269.0;
78478;SPS30;67769;51.972;5.668;2024-03-29T11:09:57;0.0;0.0;0.0;0.0;;;;1.0;276.0;
78478;SPS30;67769;51.972;5.668;2024-03-29T11:12:36;0.0;0.0;0.0;0.0;;;;1.0;274.0;
78478;SPS30;67769;51.972;5.668;2024-03-29T11:15:12;0.0;0.0;0.0;0.0;;;;1.0;269.0;
78478;SPS30;67769;51.972;5.668;2024-03-29T11:17:47;0.0;0.0;0.0;0.0;;;;1.0;263.0;
78478;SPS30;67769;51.972;5.668;2024-03-29T11:20:17;0.0;0.0;0.0;0.0;;;;1.0;264.0;
78478;SPS30;67769;51.972;5.668;2024-03-29T11:22:50;0.0;0.0;0.0;0.0;;;;1.0;256.0;
78478;SPS30;67769;51.972;5.668;2024-03-29T11:25:20;0.0;0.0;0.0;0.0;;;;1.0;237.0;
78478;SPS30;67769;51.972;5.668;2024-03-29T11:27:49;0.0;0.0;0.0;0.0;;;;1.0;239.0;
78478;SPS30;67769;51.972;5.668;2024-03-29T11:30:20;0.0;0.0;0.0;0.0;;;;1.0;233.0;
78478;SPS30;67769;51.972;5.668;2024-03-29T11:32:50;0.0;0.0;0.0;0.0;;;;1.0;238.0;
78478;SPS30;67769;51.972;5.668;2024-03-29T11:35:22;0.0;0.0;0.0;0.0;;;;1.0;263.0;
78478;SPS30;67769;51.972;5.668;2024-03-29T11:37:57;0.0;0.0;0.0;0.0;;;;1.0;263.0;
78478;SPS30;67769;51.972;5.668;2024-03-29T11:40:31;0.0;0.0;0.0;0.0;;;;1.0;259.0;
78478;SPS30;67769;51.972;5.668;2024-03-29T11:42:59;0.0;0.0;0.0;0.0;;;;1.0;235.0;
78478;SPS30;67769;51.972;5.668;2024-03-29T11:45:28;0.0;0.0;0.0;0.0;;;;1.0;232.0;
78478;SPS30;67769;51.972;5.668;2024-03-29T11:48:00;0.0;0.0;0.0;0.0;;;;1.0;227.0;
78478;SPS30;67769;51.972;5.668;2024-03-29T11:50:39;0.0;0.0;0.0;0.0;;;;1.0;231.0;
78478;SPS30;67769;51.972;5.668;2024-03-29T11:53:07;0.0;0.0;0.0;0.0;;;;1.0;235.0;
78478;SPS30;67769;51.972;5.668;2024-03-29T11:55:36;0.0;0.0;0.0;0.0;;;;1.0;246.0;
78478;SPS30;67769;51.972;5.668;2024-03-29T11:58:04;0.0;0.0;0.0;0.0;;;;1.0;251.0;
78478;SPS30;67769;51.972;5.668;2024-03-29T12:00:33;0.0;0.0;0.0;0.0;;;;1.0;251.0;
78478;SPS30;67769;51.972;5.668;2024-03-29T12:03:02;0.0;0.0;0.0;0.0;;;;1.0;229.0;
78478;SPS30;67769;51.972;5.668;2024-03-29T12:05:31;0.0;0.0;0.0;0.0;;;;1.0;220.0;
78478;SPS30;67769;51.972;5.668;2024-03-29T12:08:00;0.0;0.0;0.0;0.0;;;;1.0;197.0;
78478;SPS30;67769;51.972;5.668;2024-03-29T12:10:29;0.0;0.0;0.0;0.0;;;;1.0;208.0;
78478;SPS30;67769;51.972;5.668;2024-03-29T12:12:58;0.0;0.0;0.0;0.0;;;;1.0;228.0;
78478;SPS30;67769;51.972;5.668;2024-03-29T12:15:27;0.0;0.0;0.0;0.0;;;;1.0;225.0;
78478;SPS30;67769;51.972;5.668;2024-03-29T12:17:57;0.0;0.0;0.0;0.0;;;;1.0;221.0;
78478;SPS30;67769;51.972;5.668;2024-03-29T12:20:28;0.0;0.0;0.0;0.0;;;;1.0;208.0;
78478;SPS30;67769;51.972;5.668;2024-03-29T12:22:59;0.0;0.0;0.0;0.0;;;;1.0;211.0;